sensor_id;sensor_type;location;lat;lon;timestamp;temperature;humidity
44215;DHT22;29884;47.450;19.124;2022-12-20T00:00:17;-1.40;99.90
44215;DHT22;29884;47.450;19.124;2022-12-20T00:02:42;-1.40;99.90
44215;DHT22;29884;47.450;19.124;2022-12-20T00:05:09;-1.40;99.90
44215;DHT22;29884;47.450;19.124;2022-12-20T00:07:35;-1.40;99.90
44215;DHT22;29884;47.450;19.124;2022-12-20T00:10:00;-1.40;99.90
44215;DHT22;29884;47.450;19.124;2022-12-20T00:12:26;-1.40;99.90
44215;DHT22;29884;47.450;19.124;2022-12-20T00:14:52;-1.40;99.90
44215;DHT22;29884;47.450;19.124;2022-12-20T00:17:18;-1.30;99.90
44215;DHT22;29884;47.450;19.124;2022-12-20T00:19:44;-1.30;99.90
44215;DHT22;29884;47.450;19.124;2022-12-20T00:22:09;-1.30;99.90
44215;DHT22;29884;47.450;19.124;2022-12-20T00:24:35;-1.30;99.90
44215;DHT22;29884;47.450;19.124;2022-12-20T00:27:01;-1.20;99.90
44215;DHT22;29884;47.450;19.124;2022-12-20T00:29:27;-1.10;99.90
44215;DHT22;29884;47.450;19.124;2022-12-20T00:31:52;-1.10;99.90
44215;DHT22;29884;47.450;19.124;2022-12-20T00:34:18;-1.10;99.90
44215;DHT22;29884;47.450;19.124;2022-12-20T00:36:44;-1.10;99.90
44215;DHT22;29884;47.450;19.124;2022-12-20T00:39:09;-1.10;99.90
44215;DHT22;29884;47.450;19.124;2022-12-20T00:41:35;-1.10;99.90
44215;DHT22;29884;47.450;19.124;2022-12-20T00:44:02;-1.10;99.90
44215;DHT22;29884;47.450;19.124;2022-12-20T00:46:29;-1.10;99.90
44215;DHT22;29884;47.450;19.124;2022-12-20T00:48:56;-1.00;99.90
44215;DHT22;29884;47.450;19.124;2022-12-20T00:51:24;-1.00;99.90
44215;DHT22;29884;47.450;19.124;2022-12-20T00:53:50;-1.00;99.90
44215;DHT22;29884;47.450;19.124;2022-12-20T00:56:16;-0.90;99.90
44215;DHT22;29884;47.450;19.124;2022-12-20T00:58:42;-1.00;99.90
44215;DHT22;29884;47.450;19.124;2022-12-20T01:01:20;-0.90;99.90
44215;DHT22;29884;47.450;19.124;2022-12-20T01:03:47;-0.90;99.90
44215;DHT22;29884;47.450;19.124;2022-12-20T01:06:13;-0.90;99.90
44215;DHT22;29884;47.450;19.124;2022-12-20T01:08:39;-1.00;99.90
44215;DHT22;29884;47.450;19.124;2022-12-20T01:11:11;-0.90;99.90
44215;DHT22;29884;47.450;19.124;2022-12-20T01:13:39;-0.80;99.90
44215;DHT22;29884;47.450;19.124;2022-12-20T01:18:46;-0.80;99.90
44215;DHT22;29884;47.450;19.124;2022-12-20T01:21:14;-0.80;99.90
44215;DHT22;29884;47.450;19.124;2022-12-20T01:23:40;-0.80;99.90
44215;DHT22;29884;47.450;19.124;2022-12-20T01:26:07;-0.80;99.90
44215;DHT22;29884;47.450;19.124;2022-12-20T01:28:36;-0.90;99.90
44215;DHT22;29884;47.450;19.124;2022-12-20T01:31:09;-0.90;99.90
44215;DHT22;29884;47.450;19.124;2022-12-20T01:33:35;-0.90;99.90
44215;DHT22;29884;47.450;19.124;2022-12-20T01:36:09;-0.90;99.90
44215;DHT22;29884;47.450;19.124;2022-12-20T01:38:35;-0.90;99.90
44215;DHT22;29884;47.450;19.124;2022-12-20T01:41:02;-0.90;99.90
44215;DHT22;29884;47.450;19.124;2022-12-20T01:43:51;-0.90;99.90
44215;DHT22;29884;47.450;19.124;2022-12-20T01:46:20;-1.00;99.90
44215;DHT22;29884;47.450;19.124;2022-12-20T01:49:13;-1.00;99.90
44215;DHT22;29884;47.450;19.124;2022-12-20T01:51:47;-0.90;99.90
44215;DHT22;29884;47.450;19.124;2022-12-20T01:56:57;-0.90;99.90
44215;DHT22;29884;47.450;19.124;2022-12-20T01:59:24;-1.00;99.90
44215;DHT22;29884;47.450;19.124;2022-12-20T02:01:50;-1.00;99.90
44215;DHT22;29884;47.450;19.124;2022-12-20T02:04:16;-0.90;99.90
44215;DHT22;29884;47.450;19.124;2022-12-20T02:06:42;-0.90;99.90
44215;DHT22;29884;47.450;19.124;2022-12-20T02:09:08;-0.90;99.90
44215;DHT22;29884;47.450;19.124;2022-12-20T02:16:56;-0.90;99.90
44215;DHT22;29884;47.450;19.124;2022-12-20T02:30:53;-0.90;99.90
44215;DHT22;29884;47.450;19.124;2022-12-20T02:33:23;-0.90;99.90
44215;DHT22;29884;47.450;19.124;2022-12-20T02:35:49;-0.90;99.90
44215;DHT22;29884;47.450;19.124;2022-12-20T02:38:35;-0.90;99.90
44215;DHT22;29884;47.450;19.124;2022-12-20T02:43:28;-0.90;99.90
44215;DHT22;29884;47.450;19.124;2022-12-20T02:46:14;-0.90;99.90
44215;DHT22;29884;47.450;19.124;2022-12-20T02:48:40;-0.90;99.90
44215;DHT22;29884;47.450;19.124;2022-12-20T02:51:08;-1.00;99.90
44215;DHT22;29884;47.450;19.124;2022-12-20T02:53:35;-0.90;99.90
44215;DHT22;29884;47.450;19.124;2022-12-20T02:58:54;-0.90;99.90
44215;DHT22;29884;47.450;19.124;2022-12-20T03:01:32;-1.00;99.90
44215;DHT22;29884;47.450;19.124;2022-12-20T03:03:59;-1.00;99.90
44215;DHT22;29884;47.450;19.124;2022-12-20T03:06:25;-1.00;99.90
44215;DHT22;29884;47.450;19.124;2022-12-20T03:08:51;-1.00;99.90
44215;DHT22;29884;47.450;19.124;2022-12-20T03:11:17;-1.00;99.90
44215;DHT22;29884;47.450;19.124;2022-12-20T03:13:44;-0.90;99.90
44215;DHT22;29884;47.450;19.124;2022-12-20T03:16:11;-0.90;99.90
44215;DHT22;29884;47.450;19.124;2022-12-20T03:18:37;-0.90;99.90
44215;DHT22;29884;47.450;19.124;2022-12-20T03:21:02;-0.80;99.90
44215;DHT22;29884;47.450;19.124;2022-12-20T03:23:28;-0.80;99.90
44215;DHT22;29884;47.450;19.124;2022-12-20T03:25:54;-0.80;99.90
44215;DHT22;29884;47.450;19.124;2022-12-20T03:28:20;-0.80;99.90
44215;DHT22;29884;47.450;19.124;2022-12-20T03:30:46;-0.80;99.90
44215;DHT22;29884;47.450;19.124;2022-12-20T03:33:11;-0.80;99.90
44215;DHT22;29884;47.450;19.124;2022-12-20T03:35:37;-0.80;99.90
44215;DHT22;29884;47.450;19.124;2022-12-20T03:38:03;-0.80;99.90
44215;DHT22;29884;47.450;19.124;2022-12-20T03:40:28;-0.70;99.90
44215;DHT22;29884;47.450;19.124;2022-12-20T03:42:54;-0.80;99.90
44215;DHT22;29884;47.450;19.124;2022-12-20T03:45:20;-0.80;99.90
44215;DHT22;29884;47.450;19.124;2022-12-20T03:47:45;-0.80;99.90
44215;DHT22;29884;47.450;19.124;2022-12-20T03:50:12;-0.80;99.90
44215;DHT22;29884;47.450;19.124;2022-12-20T03:52:38;-0.80;99.90
44215;DHT22;29884;47.450;19.124;2022-12-20T03:55:05;-0.80;99.90
44215;DHT22;29884;47.450;19.124;2022-12-20T03:57:31;-0.80;99.90
44215;DHT22;29884;47.450;19.124;2022-12-20T03:59:56;-0.80;99.90
44215;DHT22;29884;47.450;19.124;2022-12-20T04:02:22;-0.90;99.90
44215;DHT22;29884;47.450;19.124;2022-12-20T04:04:48;-0.90;99.90
44215;DHT22;29884;47.450;19.124;2022-12-20T04:07:14;-0.90;99.90
44215;DHT22;29884;47.450;19.124;2022-12-20T04:09:40;-0.90;99.90
44215;DHT22;29884;47.450;19.124;2022-12-20T04:12:06;-0.90;99.90
44215;DHT22;29884;47.450;19.124;2022-12-20T04:14:32;-0.90;99.90
44215;DHT22;29884;47.450;19.124;2022-12-20T04:16:58;-1.00;99.90
44215;DHT22;29884;47.450;19.124;2022-12-20T04:19:23;-1.00;99.90
44215;DHT22;29884;47.450;19.124;2022-12-20T04:21:49;-1.00;99.90
44215;DHT22;29884;47.450;19.124;2022-12-20T04:24:15;-1.00;99.90
44215;DHT22;29884;47.450;19.124;2022-12-20T04:26:40;-1.00;99.90
44215;DHT22;29884;47.450;19.124;2022-12-20T04:29:06;-1.10;99.90
44215;DHT22;29884;47.450;19.124;2022-12-20T04:31:32;-1.10;99.90
44215;DHT22;29884;47.450;19.124;2022-12-20T04:33:58;-1.10;99.90
44215;DHT22;29884;47.450;19.124;2022-12-20T04:36:24;-1.10;99.90
44215;DHT22;29884;47.450;19.124;2022-12-20T04:38:49;-1.10;99.90
44215;DHT22;29884;47.450;19.124;2022-12-20T04:41:16;-1.10;99.90
44215;DHT22;29884;47.450;19.124;2022-12-20T04:43:51;-1.10;99.90
44215;DHT22;29884;47.450;19.124;2022-12-20T04:46:17;-1.10;99.90
44215;DHT22;29884;47.450;19.124;2022-12-20T04:48:43;-1.00;99.90
44215;DHT22;29884;47.450;19.124;2022-12-20T04:51:09;-1.10;99.90
44215;DHT22;29884;47.450;19.124;2022-12-20T04:53:35;-1.00;99.90
44215;DHT22;29884;47.450;19.124;2022-12-20T04:56:25;-1.00;99.90
44215;DHT22;29884;47.450;19.124;2022-12-20T04:58:53;-0.90;99.90
44215;DHT22;29884;47.450;19.124;2022-12-20T05:01:19;-0.90;99.90
44215;DHT22;29884;47.450;19.124;2022-12-20T05:03:46;-0.90;99.90
44215;DHT22;29884;47.450;19.124;2022-12-20T05:06:12;-0.90;99.90
44215;DHT22;29884;47.450;19.124;2022-12-20T05:08:38;-0.80;99.90
44215;DHT22;29884;47.450;19.124;2022-12-20T05:11:04;-0.80;99.90
44215;DHT22;29884;47.450;19.124;2022-12-20T05:13:30;-0.80;99.90
44215;DHT22;29884;47.450;19.124;2022-12-20T05:15:57;-0.80;99.90
44215;DHT22;29884;47.450;19.124;2022-12-20T05:18:24;-0.80;99.90
44215;DHT22;29884;47.450;19.124;2022-12-20T05:20:50;-0.80;99.90
44215;DHT22;29884;47.450;19.124;2022-12-20T05:23:36;-0.80;99.90
44215;DHT22;29884;47.450;19.124;2022-12-20T05:26:21;-0.80;99.90
44215;DHT22;29884;47.450;19.124;2022-12-20T05:28:47;-0.80;99.90
44215;DHT22;29884;47.450;19.124;2022-12-20T05:31:13;-0.80;99.90
44215;DHT22;29884;47.450;19.124;2022-12-20T05:33:40;-0.80;99.90
44215;DHT22;29884;47.450;19.124;2022-12-20T05:36:06;-0.80;99.90
44215;DHT22;29884;47.450;19.124;2022-12-20T05:38:32;-0.80;99.90
44215;DHT22;29884;47.450;19.124;2022-12-20T05:40:57;-0.80;99.90
44215;DHT22;29884;47.450;19.124;2022-12-20T05:43:23;-0.80;99.90
44215;DHT22;29884;47.450;19.124;2022-12-20T05:45:51;-0.80;99.90
44215;DHT22;29884;47.450;19.124;2022-12-20T05:48:18;-0.80;99.90
44215;DHT22;29884;47.450;19.124;2022-12-20T05:50:45;-0.80;99.90
44215;DHT22;29884;47.450;19.124;2022-12-20T05:53:12;-0.80;99.90
44215;DHT22;29884;47.450;19.124;2022-12-20T05:55:43;-0.90;99.90
44215;DHT22;29884;47.450;19.124;2022-12-20T05:58:09;-0.90;99.90
44215;DHT22;29884;47.450;19.124;2022-12-20T06:00:39;-0.90;99.90
44215;DHT22;29884;47.450;19.124;2022-12-20T06:03:05;-0.90;99.90
44215;DHT22;29884;47.450;19.124;2022-12-20T06:05:30;-0.90;99.90
44215;DHT22;29884;47.450;19.124;2022-12-20T06:07:56;-0.90;99.90
44215;DHT22;29884;47.450;19.124;2022-12-20T06:10:22;-0.90;99.90
44215;DHT22;29884;47.450;19.124;2022-12-20T06:12:48;-0.90;99.90
44215;DHT22;29884;47.450;19.124;2022-12-20T06:15:14;-1.00;99.90
44215;DHT22;29884;47.450;19.124;2022-12-20T06:17:40;-1.00;99.90
44215;DHT22;29884;47.450;19.124;2022-12-20T06:20:07;-1.00;99.90
44215;DHT22;29884;47.450;19.124;2022-12-20T06:22:33;-1.00;99.90
44215;DHT22;29884;47.450;19.124;2022-12-20T06:24:59;-1.00;99.90
44215;DHT22;29884;47.450;19.124;2022-12-20T06:27:24;-1.00;99.90
44215;DHT22;29884;47.450;19.124;2022-12-20T06:29:50;-1.00;99.90
44215;DHT22;29884;47.450;19.124;2022-12-20T06:32:19;-1.00;99.90
44215;DHT22;29884;47.450;19.124;2022-12-20T06:34:45;-1.00;99.90
44215;DHT22;29884;47.450;19.124;2022-12-20T06:37:11;-1.00;99.90
44215;DHT22;29884;47.450;19.124;2022-12-20T06:39:36;-1.00;99.90
44215;DHT22;29884;47.450;19.124;2022-12-20T06:42:02;-1.00;99.90
44215;DHT22;29884;47.450;19.124;2022-12-20T06:44:28;-1.00;99.90
44215;DHT22;29884;47.450;19.124;2022-12-20T06:46:54;-1.00;99.90
44215;DHT22;29884;47.450;19.124;2022-12-20T06:49:19;-1.00;99.90
44215;DHT22;29884;47.450;19.124;2022-12-20T06:51:47;-1.00;99.90
44215;DHT22;29884;47.450;19.124;2022-12-20T06:54:13;-0.90;99.90
44215;DHT22;29884;47.450;19.124;2022-12-20T06:56:39;-1.00;99.90
44215;DHT22;29884;47.450;19.124;2022-12-20T06:59:05;-1.00;99.90
44215;DHT22;29884;47.450;19.124;2022-12-20T07:01:30;-1.00;99.90
44215;DHT22;29884;47.450;19.124;2022-12-20T07:03:56;-1.00;99.90
44215;DHT22;29884;47.450;19.124;2022-12-20T07:06:22;-1.00;99.90
44215;DHT22;29884;47.450;19.124;2022-12-20T07:08:48;-0.90;99.90
44215;DHT22;29884;47.450;19.124;2022-12-20T07:11:13;-0.90;99.90
44215;DHT22;29884;47.450;19.124;2022-12-20T07:13:39;-0.90;99.90
44215;DHT22;29884;47.450;19.124;2022-12-20T07:16:05;-0.90;99.90
44215;DHT22;29884;47.450;19.124;2022-12-20T07:18:31;-0.80;99.90
44215;DHT22;29884;47.450;19.124;2022-12-20T07:21:04;-0.80;99.90
44215;DHT22;29884;47.450;19.124;2022-12-20T07:23:30;-0.90;99.90
44215;DHT22;29884;47.450;19.124;2022-12-20T07:25:58;-0.80;99.90
44215;DHT22;29884;47.450;19.124;2022-12-20T07:28:26;-0.70;99.90
44215;DHT22;29884;47.450;19.124;2022-12-20T07:30:52;-0.70;99.90
44215;DHT22;29884;47.450;19.124;2022-12-20T07:33:18;-0.70;99.90
44215;DHT22;29884;47.450;19.124;2022-12-20T07:35:44;-0.70;99.90
44215;DHT22;29884;47.450;19.124;2022-12-20T07:38:13;-0.70;99.90
44215;DHT22;29884;47.450;19.124;2022-12-20T07:40:40;-0.60;99.90
44215;DHT22;29884;47.450;19.124;2022-12-20T07:43:07;-0.60;99.90
44215;DHT22;29884;47.450;19.124;2022-12-20T07:45:33;-0.50;99.90
44215;DHT22;29884;47.450;19.124;2022-12-20T07:47:58;-0.50;99.90
44215;DHT22;29884;47.450;19.124;2022-12-20T07:50:26;-0.40;99.90
44215;DHT22;29884;47.450;19.124;2022-12-20T07:52:53;-0.40;99.90
44215;DHT22;29884;47.450;19.124;2022-12-20T07:55:19;-0.40;99.90
44215;DHT22;29884;47.450;19.124;2022-12-20T07:57:53;-0.30;99.90
44215;DHT22;29884;47.450;19.124;2022-12-20T08:00:20;-0.30;99.90
44215;DHT22;29884;47.450;19.124;2022-12-20T08:03:17;-0.20;99.90
44215;DHT22;29884;47.450;19.124;2022-12-20T08:05:46;-0.10;99.90
44215;DHT22;29884;47.450;19.124;2022-12-20T08:08:13;0.00;99.90
44215;DHT22;29884;47.450;19.124;2022-12-20T08:10:39;0.00;99.90
44215;DHT22;29884;47.450;19.124;2022-12-20T08:13:06;0.00;99.90
44215;DHT22;29884;47.450;19.124;2022-12-20T08:15:34;-0.10;99.90
44215;DHT22;29884;47.450;19.124;2022-12-20T08:18:00;-0.10;99.90
44215;DHT22;29884;47.450;19.124;2022-12-20T08:20:26;-0.20;99.90
44215;DHT22;29884;47.450;19.124;2022-12-20T08:22:52;-0.10;99.90
44215;DHT22;29884;47.450;19.124;2022-12-20T08:25:18;-0.10;99.90
44215;DHT22;29884;47.450;19.124;2022-12-20T08:27:43;-0.20;99.90
44215;DHT22;29884;47.450;19.124;2022-12-20T08:30:09;-0.20;99.90
44215;DHT22;29884;47.450;19.124;2022-12-20T08:32:36;-0.20;99.90
44215;DHT22;29884;47.450;19.124;2022-12-20T08:35:03;-0.10;99.90
44215;DHT22;29884;47.450;19.124;2022-12-20T08:37:29;-0.10;99.90
44215;DHT22;29884;47.450;19.124;2022-12-20T08:39:55;-0.10;99.90
44215;DHT22;29884;47.450;19.124;2022-12-20T08:42:20;-0.10;99.90
44215;DHT22;29884;47.450;19.124;2022-12-20T08:44:46;-0.10;99.90
44215;DHT22;29884;47.450;19.124;2022-12-20T08:47:12;0.10;99.90
44215;DHT22;29884;47.450;19.124;2022-12-20T08:49:38;0.20;99.90
44215;DHT22;29884;47.450;19.124;2022-12-20T08:52:04;0.20;99.90
44215;DHT22;29884;47.450;19.124;2022-12-20T08:54:30;0.30;99.90
44215;DHT22;29884;47.450;19.124;2022-12-20T08:56:55;0.40;99.90
44215;DHT22;29884;47.450;19.124;2022-12-20T08:59:21;0.40;99.90
44215;DHT22;29884;47.450;19.124;2022-12-20T09:01:46;0.40;99.90
44215;DHT22;29884;47.450;19.124;2022-12-20T09:04:12;0.40;99.90
44215;DHT22;29884;47.450;19.124;2022-12-20T09:06:39;0.50;99.90
44215;DHT22;29884;47.450;19.124;2022-12-20T09:09:05;0.60;99.90
44215;DHT22;29884;47.450;19.124;2022-12-20T09:11:32;0.70;99.90
44215;DHT22;29884;47.450;19.124;2022-12-20T09:13:58;0.70;99.90
44215;DHT22;29884;47.450;19.124;2022-12-20T09:16:27;0.70;99.90
44215;DHT22;29884;47.450;19.124;2022-12-20T09:18:55;0.80;99.90
44215;DHT22;29884;47.450;19.124;2022-12-20T09:21:21;0.70;99.90
44215;DHT22;29884;47.450;19.124;2022-12-20T09:23:51;0.80;99.90
44215;DHT22;29884;47.450;19.124;2022-12-20T09:26:18;1.00;99.90
44215;DHT22;29884;47.450;19.124;2022-12-20T09:28:44;1.10;99.90
44215;DHT22;29884;47.450;19.124;2022-12-20T09:31:12;0.90;99.90
44215;DHT22;29884;47.450;19.124;2022-12-20T09:33:39;0.90;99.90
44215;DHT22;29884;47.450;19.124;2022-12-20T09:36:06;1.00;99.90
44215;DHT22;29884;47.450;19.124;2022-12-20T09:38:32;1.10;99.90
44215;DHT22;29884;47.450;19.124;2022-12-20T09:41:02;1.20;99.90
44215;DHT22;29884;47.450;19.124;2022-12-20T09:43:28;1.30;99.90
44215;DHT22;29884;47.450;19.124;2022-12-20T09:45:56;1.30;99.90
44215;DHT22;29884;47.450;19.124;2022-12-20T09:48:25;1.30;99.90
44215;DHT22;29884;47.450;19.124;2022-12-20T09:54:15;1.40;99.90
44215;DHT22;29884;47.450;19.124;2022-12-20T09:56:50;1.40;99.90
44215;DHT22;29884;47.450;19.124;2022-12-20T09:59:20;1.40;99.90
44215;DHT22;29884;47.450;19.124;2022-12-20T10:01:48;1.60;99.90
44215;DHT22;29884;47.450;19.124;2022-12-20T10:04:26;1.60;99.90
44215;DHT22;29884;47.450;19.124;2022-12-20T10:12:15;1.70;99.90
44215;DHT22;29884;47.450;19.124;2022-12-20T10:23:47;2.00;99.90
44215;DHT22;29884;47.450;19.124;2022-12-20T10:26:11;2.00;99.90
44215;DHT22;29884;47.450;19.124;2022-12-20T10:28:38;2.00;99.90
44215;DHT22;29884;47.450;19.124;2022-12-20T10:31:13;2.10;99.90
44215;DHT22;29884;47.450;19.124;2022-12-20T10:33:39;2.20;99.90
44215;DHT22;29884;47.450;19.124;2022-12-20T10:39:04;2.10;99.90
44215;DHT22;29884;47.450;19.124;2022-12-20T10:41:47;2.10;99.90
44215;DHT22;29884;47.450;19.124;2022-12-20T10:44:22;2.10;99.90
44215;DHT22;29884;47.450;19.124;2022-12-20T10:46:56;2.10;99.90
44215;DHT22;29884;47.450;19.124;2022-12-20T10:51:59;2.30;99.90
44215;DHT22;29884;47.450;19.124;2022-12-20T10:54:51;2.40;99.90
44215;DHT22;29884;47.450;19.124;2022-12-20T10:57:28;2.60;99.90
44215;DHT22;29884;47.450;19.124;2022-12-20T10:59:57;2.70;99.90
44215;DHT22;29884;47.450;19.124;2022-12-20T11:02:30;2.80;99.90
44215;DHT22;29884;47.450;19.124;2022-12-20T11:07:31;2.70;99.90
44215;DHT22;29884;47.450;19.124;2022-12-20T11:10:24;2.60;99.90
44215;DHT22;29884;47.450;19.124;2022-12-20T11:12:57;2.50;99.90
44215;DHT22;29884;47.450;19.124;2022-12-20T11:15:29;2.50;99.90
44215;DHT22;29884;47.450;19.124;2022-12-20T11:18:19;2.50;99.90
44215;DHT22;29884;47.450;19.124;2022-12-20T11:21:22;2.60;99.90
44215;DHT22;29884;47.450;19.124;2022-12-20T11:24:11;2.70;99.90
44215;DHT22;29884;47.450;19.124;2022-12-20T11:43:46;2.60;99.90
44215;DHT22;29884;47.450;19.124;2022-12-20T11:51:42;2.70;99.90
44215;DHT22;29884;47.450;19.124;2022-12-20T11:57:02;2.70;99.90
44215;DHT22;29884;47.450;19.124;2022-12-20T12:02:02;2.80;99.90
44215;DHT22;29884;47.450;19.124;2022-12-20T12:05:01;2.80;99.90
44215;DHT22;29884;47.450;19.124;2022-12-20T12:07:28;2.80;99.90
44215;DHT22;29884;47.450;19.124;2022-12-20T12:12:31;2.90;99.90
44215;DHT22;29884;47.450;19.124;2022-12-20T12:17:46;3.00;99.90
44215;DHT22;29884;47.450;19.124;2022-12-20T12:22:55;3.00;99.90
44215;DHT22;29884;47.450;19.124;2022-12-20T12:25:22;3.10;99.90
44215;DHT22;29884;47.450;19.124;2022-12-20T12:27:48;3.20;99.90
44215;DHT22;29884;47.450;19.124;2022-12-20T12:30:15;3.10;99.90
44215;DHT22;29884;47.450;19.124;2022-12-20T12:32:43;3.20;99.90
44215;DHT22;29884;47.450;19.124;2022-12-20T12:38:14;3.10;99.90
44215;DHT22;29884;47.450;19.124;2022-12-20T12:46:27;3.00;99.90
44215;DHT22;29884;47.450;19.124;2022-12-20T12:49:03;2.90;99.90
44215;DHT22;29884;47.450;19.124;2022-12-20T12:51:34;2.90;99.90
44215;DHT22;29884;47.450;19.124;2022-12-20T12:56:52;3.00;99.90
44215;DHT22;29884;47.450;19.124;2022-12-20T13:04:58;3.00;99.90
44215;DHT22;29884;47.450;19.124;2022-12-20T13:13:00;2.90;99.90
44215;DHT22;29884;47.450;19.124;2022-12-20T13:15:45;2.80;99.90
44215;DHT22;29884;47.450;19.124;2022-12-20T13:20:36;2.80;99.90
44215;DHT22;29884;47.450;19.124;2022-12-20T13:44:22;2.60;99.90
44215;DHT22;29884;47.450;19.124;2022-12-20T13:49:43;2.60;99.90
44215;DHT22;29884;47.450;19.124;2022-12-20T13:54:47;2.60;99.90
44215;DHT22;29884;47.450;19.124;2022-12-20T13:57:16;2.60;99.90
44215;DHT22;29884;47.450;19.124;2022-12-20T13:59:50;2.50;99.90
44215;DHT22;29884;47.450;19.124;2022-12-20T14:02:43;2.50;99.90
44215;DHT22;29884;47.450;19.124;2022-12-20T14:05:21;2.50;99.90
44215;DHT22;29884;47.450;19.124;2022-12-20T14:07:55;2.50;99.90
44215;DHT22;29884;47.450;19.124;2022-12-20T14:10:25;2.50;99.90
44215;DHT22;29884;47.450;19.124;2022-12-20T14:12:51;2.40;99.90
44215;DHT22;29884;47.450;19.124;2022-12-20T14:15:24;2.40;99.90
44215;DHT22;29884;47.450;19.124;2022-12-20T14:17:50;2.40;99.90
44215;DHT22;29884;47.450;19.124;2022-12-20T14:25:51;2.40;99.90
44215;DHT22;29884;47.450;19.124;2022-12-20T14:28:39;2.40;99.90
44215;DHT22;29884;47.450;19.124;2022-12-20T14:31:33;2.40;99.90
44215;DHT22;29884;47.450;19.124;2022-12-20T14:36:40;2.20;99.90
44215;DHT22;29884;47.450;19.124;2022-12-20T14:39:29;2.10;99.90
44215;DHT22;29884;47.450;19.124;2022-12-20T14:44:30;1.90;99.90
44215;DHT22;29884;47.450;19.124;2022-12-20T14:47:03;1.80;99.90
44215;DHT22;29884;47.450;19.124;2022-12-20T14:52:19;1.70;99.90
44215;DHT22;29884;47.450;19.124;2022-12-20T14:54:49;1.60;99.90
44215;DHT22;29884;47.450;19.124;2022-12-20T15:08:16;1.40;99.90
44215;DHT22;29884;47.450;19.124;2022-12-20T15:13:43;1.40;99.90
44215;DHT22;29884;47.450;19.124;2022-12-20T15:18:39;1.30;99.90
44215;DHT22;29884;47.450;19.124;2022-12-20T15:21:42;1.20;99.90
44215;DHT22;29884;47.450;19.124;2022-12-20T15:24:13;1.20;99.90
44215;DHT22;29884;47.450;19.124;2022-12-20T15:26:40;1.20;99.90
44215;DHT22;29884;47.450;19.124;2022-12-20T15:29:06;1.20;99.90
44215;DHT22;29884;47.450;19.124;2022-12-20T15:31:35;1.20;99.90
44215;DHT22;29884;47.450;19.124;2022-12-20T15:34:13;1.20;99.90
44215;DHT22;29884;47.450;19.124;2022-12-20T15:36:40;1.20;99.90
44215;DHT22;29884;47.450;19.124;2022-12-20T15:39:06;1.20;99.90
44215;DHT22;29884;47.450;19.124;2022-12-20T15:41:32;1.20;99.90
44215;DHT22;29884;47.450;19.124;2022-12-20T15:44:05;1.10;99.90
44215;DHT22;29884;47.450;19.124;2022-12-20T15:46:31;1.10;99.90
44215;DHT22;29884;47.450;19.124;2022-12-20T15:48:57;1.10;99.90
44215;DHT22;29884;47.450;19.124;2022-12-20T15:51:35;1.10;99.90
44215;DHT22;29884;47.450;19.124;2022-12-20T15:54:03;1.10;99.90
44215;DHT22;29884;47.450;19.124;2022-12-20T15:56:29;1.10;99.90
44215;DHT22;29884;47.450;19.124;2022-12-20T15:58:55;1.10;99.90
44215;DHT22;29884;47.450;19.124;2022-12-20T16:01:24;1.10;99.90
44215;DHT22;29884;47.450;19.124;2022-12-20T16:03:51;1.10;99.90
44215;DHT22;29884;47.450;19.124;2022-12-20T16:06:16;1.10;99.90
44215;DHT22;29884;47.450;19.124;2022-12-20T16:08:42;1.10;99.90
44215;DHT22;29884;47.450;19.124;2022-12-20T16:11:26;1.10;99.90
44215;DHT22;29884;47.450;19.124;2022-12-20T16:13:53;1.10;99.90
44215;DHT22;29884;47.450;19.124;2022-12-20T16:16:24;1.10;99.90
44215;DHT22;29884;47.450;19.124;2022-12-20T16:18:51;1.10;99.90
44215;DHT22;29884;47.450;19.124;2022-12-20T16:21:25;1.10;99.90
44215;DHT22;29884;47.450;19.124;2022-12-20T16:23:52;1.10;99.90
44215;DHT22;29884;47.450;19.124;2022-12-20T16:26:20;1.10;99.90
44215;DHT22;29884;47.450;19.124;2022-12-20T16:28:47;1.10;99.90
44215;DHT22;29884;47.450;19.124;2022-12-20T16:31:28;1.10;99.90
44215;DHT22;29884;47.450;19.124;2022-12-20T16:33:59;1.10;99.90
44215;DHT22;29884;47.450;19.124;2022-12-20T16:36:25;1.10;99.90
44215;DHT22;29884;47.450;19.124;2022-12-20T16:38:51;1.10;99.90
44215;DHT22;29884;47.450;19.124;2022-12-20T16:41:29;1.10;99.90
44215;DHT22;29884;47.450;19.124;2022-12-20T16:43:57;1.10;99.90
44215;DHT22;29884;47.450;19.124;2022-12-20T16:46:25;1.10;99.90
44215;DHT22;29884;47.450;19.124;2022-12-20T16:48:52;1.10;99.90
44215;DHT22;29884;47.450;19.124;2022-12-20T16:51:30;1.10;99.90
44215;DHT22;29884;47.450;19.124;2022-12-20T16:54:01;1.00;99.90
44215;DHT22;29884;47.450;19.124;2022-12-20T16:56:28;1.00;99.90
44215;DHT22;29884;47.450;19.124;2022-12-20T16:58:55;1.00;99.90
44215;DHT22;29884;47.450;19.124;2022-12-20T17:01:24;1.00;99.90
44215;DHT22;29884;47.450;19.124;2022-12-20T17:03:52;1.00;99.90
44215;DHT22;29884;47.450;19.124;2022-12-20T17:06:19;1.00;99.90
44215;DHT22;29884;47.450;19.124;2022-12-20T17:08:45;1.00;99.90
44215;DHT22;29884;47.450;19.124;2022-12-20T17:13:45;1.00;99.90
44215;DHT22;29884;47.450;19.124;2022-12-20T17:16:11;1.00;99.90
44215;DHT22;29884;47.450;19.124;2022-12-20T17:18:48;1.00;99.90
44215;DHT22;29884;47.450;19.124;2022-12-20T17:21:37;1.00;99.90
44215;DHT22;29884;47.450;19.124;2022-12-20T17:24:04;1.00;99.90
44215;DHT22;29884;47.450;19.124;2022-12-20T17:26:33;1.00;99.90
44215;DHT22;29884;47.450;19.124;2022-12-20T17:28:59;1.00;99.90
44215;DHT22;29884;47.450;19.124;2022-12-20T17:31:39;1.00;99.90
44215;DHT22;29884;47.450;19.124;2022-12-20T17:34:08;1.00;99.90
44215;DHT22;29884;47.450;19.124;2022-12-20T17:36:37;1.00;99.90
44215;DHT22;29884;47.450;19.124;2022-12-20T17:39:03;1.00;99.90
44215;DHT22;29884;47.450;19.124;2022-12-20T17:41:30;0.90;99.90
44215;DHT22;29884;47.450;19.124;2022-12-20T17:44:00;1.00;99.90
44215;DHT22;29884;47.450;19.124;2022-12-20T17:46:27;1.00;99.90
44215;DHT22;29884;47.450;19.124;2022-12-20T17:48:53;1.00;99.90
44215;DHT22;29884;47.450;19.124;2022-12-20T17:51:27;0.90;99.90
44215;DHT22;29884;47.450;19.124;2022-12-20T17:53:55;0.90;99.90
44215;DHT22;29884;47.450;19.124;2022-12-20T17:56:27;0.90;99.90
44215;DHT22;29884;47.450;19.124;2022-12-20T17:58:54;1.00;99.90
44215;DHT22;29884;47.450;19.124;2022-12-20T18:01:28;0.90;99.90
44215;DHT22;29884;47.450;19.124;2022-12-20T18:03:56;0.90;99.90
44215;DHT22;29884;47.450;19.124;2022-12-20T18:06:23;0.90;99.90
44215;DHT22;29884;47.450;19.124;2022-12-20T18:08:50;1.00;99.90
44215;DHT22;29884;47.450;19.124;2022-12-20T18:11:16;1.00;99.90
44215;DHT22;29884;47.450;19.124;2022-12-20T18:13:47;0.90;99.90
44215;DHT22;29884;47.450;19.124;2022-12-20T18:16:15;0.90;99.90
44215;DHT22;29884;47.450;19.124;2022-12-20T18:18:42;0.90;99.90
44215;DHT22;29884;47.450;19.124;2022-12-20T18:21:12;0.90;99.90
44215;DHT22;29884;47.450;19.124;2022-12-20T18:23:39;0.90;99.90
44215;DHT22;29884;47.450;19.124;2022-12-20T18:26:14;0.90;99.90